Map

Track Data

SID SEASON NUMBER BASIN SUBBASIN NAME ISO_TIME NATURE LAT LON WMO_WIND WMO_PRES WMO_AGENCY TRACK_TYPE DIST2LAND LANDFALL IFLAG USA_AGENCY USA_ATCF_ID USA_LAT USA_LON USA_RECORD USA_STATUS USA_WIND USA_PRES USA_SSHS USA_R34_NE USA_R34_SE USA_R34_SW USA_R34_NW USA_R50_NE USA_R50_SE USA_R50_SW USA_R50_NW USA_R64_NE USA_R64_SE USA_R64_SW USA_R64_NW USA_POCI USA_ROCI USA_RMW USA_EYE TOKYO_LAT TOKYO_LON TOKYO_GRADE TOKYO_WIND TOKYO_PRES TOKYO_R50_DIR TOKYO_R50_LONG TOKYO_R50_SHORT TOKYO_R30_DIR TOKYO_R30_LONG TOKYO_R30_SHORT TOKYO_LAND CMA_LAT CMA_LON CMA_CAT CMA_WIND CMA_PRES HKO_LAT HKO_LON HKO_CAT HKO_WIND HKO_PRES NEWDELHI_LAT NEWDELHI_LON NEWDELHI_GRADE NEWDELHI_WIND NEWDELHI_PRES NEWDELHI_CI NEWDELHI_DP NEWDELHI_POCI REUNION_LAT REUNION_LON REUNION_TYPE REUNION_WIND REUNION_PRES REUNION_TNUM REUNION_CI REUNION_RMW REUNION_R34_NE REUNION_R34_SE REUNION_R34_SW REUNION_R34_NW REUNION_R50_NE REUNION_R50_SE REUNION_R50_SW REUNION_R50_NW REUNION_R64_NE REUNION_R64_SE REUNION_R64_SW REUNION_R64_NW BOM_LAT BOM_LON BOM_TYPE BOM_WIND BOM_PRES BOM_TNUM BOM_CI BOM_RMW BOM_R34_NE BOM_R34_SE BOM_R34_SW BOM_R34_NW BOM_R50_NE BOM_R50_SE BOM_R50_SW BOM_R50_NW BOM_R64_NE BOM_R64_SE BOM_R64_SW BOM_R64_NW BOM_ROCI BOM_POCI BOM_EYE BOM_POS_METHOD BOM_PRES_METHOD NADI_LAT NADI_LON NADI_CAT NADI_WIND NADI_PRES WELLINGTON_LAT WELLINGTON_LON WELLINGTON_WIND WELLINGTON_PRES DS824_LAT DS824_LON DS824_STAGE DS824_WIND DS824_PRES TD9636_LAT TD9636_LON TD9636_STAGE TD9636_WIND TD9636_PRES TD9635_LAT TD9635_LON TD9635_WIND TD9635_PRES TD9635_ROCI NEUMANN_LAT NEUMANN_LON NEUMANN_CLASS NEUMANN_WIND NEUMANN_PRES MLC_LAT MLC_LON MLC_CLASS MLC_WIND MLC_PRES USA_GUST BOM_GUST BOM_GUST_PER REUNION_GUST REUNION_GUST_PER USA_SEAHGT USA_SEARAD_NE USA_SEARAD_SE USA_SEARAD_SW USA_SEARAD_NW STORM_SPEED STORM_DIR
1933200N16143 1933 28 WP MM NOT_NAMED 1933-07-19 09:00:00 NR 16.0000 143.000 main 1934 1934 __________O___ -1 16.0000 143.000 2 2 43
1933200N16143 1933 28 WP MM NOT_NAMED 1933-07-19 12:00:00 NR 16.0765 143.076 main 1947 1947 __________P___ -1 16.0765 143.076 2 2 35
1933200N16143 1933 28 WP MM NOT_NAMED 1933-07-19 15:00:00 NR 16.1724 143.122 main 1949 1949 __________P___ -1 16.1724 143.122 2 2 10
1933200N16143 1933 28 WP MM NOT_NAMED 1933-07-19 18:00:00 NR 16.3071 143.107 main 1951 1943 __________P___ -1 16.3071 143.107 2 4 340
1933200N16143 1933 28 WP MM NOT_NAMED 1933-07-19 21:00:00 NR 16.5000 143.000 main 1945 1929 __________O___ -1 16.5000 143.000 2 6 326
1933200N16143 1933 28 WP MM NOT_NAMED 1933-07-20 00:00:00 NR 16.7604 142.781 main 1932 1906 __________P___ -1 16.7604 142.781 2 8 318
1933200N16143 1933 28 WP MM NOT_NAMED 1933-07-20 03:00:00 NR 17.0577 142.471 main 1909 1873 __________P___ -1 17.0577 142.471 2 9 312
1933200N16143 1933 28 WP MM NOT_NAMED 1933-07-20 06:00:00 NR 17.3510 142.100 main 1876 1842 __________P___ -1 17.3510 142.100 2 9 306
1933200N16143 1933 28 WP MM NOT_NAMED 1933-07-20 09:00:00 NR 17.6000 141.700 main 1842 1808 __________O___ -1 17.6000 141.700 2 8 299
1933200N16143 1933 28 WP MM NOT_NAMED 1933-07-20 12:00:00 NR 17.7664 141.325 main 1808 1782 __________P___ -1 17.7664 141.325 2 8 291
1933200N16143 1933 28 WP MM NOT_NAMED 1933-07-20 15:00:00 NR 17.8823 140.930 main 1772 1735 __________P___ -1 17.8823 140.930 2 8 284
1933200N16143 1933 28 WP MM NOT_NAMED 1933-07-20 18:00:00 NR 17.9570 140.519 main 1735 1696 __________P___ -1 17.9570 140.519 2 8 278
1933200N16143 1933 28 WP MM NOT_NAMED 1933-07-20 21:00:00 NR 18.0000 140.100 main 1696 1656 __________O___ -1 18.0000 140.100 2 8 274
1933200N16143 1933 28 WP MM NOT_NAMED 1933-07-21 00:00:00 NR 18.0155 139.726 main 1656 1626 __________P___ -1 18.0155 139.726 2 7 270
1933200N16143 1933 28 WP MM NOT_NAMED 1933-07-21 03:00:00 NR 18.0059 139.339 main 1617 1577 __________P___ -1 18.0059 139.339 2 8 268
1933200N16143 1933 28 WP MM NOT_NAMED 1933-07-21 06:00:00 NR 17.9934 138.907 main 1577 1529 __________P___ -1 17.9934 138.907 2 9 270
1933200N16143 1933 28 WP MM NOT_NAMED 1933-07-21 09:00:00 NR 18.0000 138.400 main 1529 1471 __________O___ -1 18.0000 138.400 2 11 272
1933200N16143 1933 28 WP MM NOT_NAMED 1933-07-21 12:00:00 NR 18.0263 137.742 main 1461 1409 __________P___ -1 18.0263 137.742 2 13 273
1933200N16143 1933 28 WP MM NOT_NAMED 1933-07-21 15:00:00 NR 18.0769 137.014 main 1399 1339 __________P___ -1 18.0769 137.014 2 14 276
1933200N16143 1933 28 WP MM NOT_NAMED 1933-07-21 18:00:00 NR 18.1638 136.280 main 1339 1280 __________P___ -1 18.1638 136.280 2 14 279
1933200N16143 1933 28 WP MM NOT_NAMED 1933-07-21 21:00:00 NR 18.3000 135.600 main 1280 1241 __________O___ -1 18.3000 135.600 2 12 281
1933200N16143 1933 28 WP MM NOT_NAMED 1933-07-22 00:00:00 NR 18.3886 135.074 main 1241 1203 __________P___ -1 18.3886 135.074 2 10 284
1933200N16143 1933 28 WP MM NOT_NAMED 1933-07-22 03:00:00 NR 18.5432 134.608 main 1203 1180 __________P___ -1 18.5432 134.608 2 10 297
1933200N16143 1933 28 WP MM NOT_NAMED 1933-07-22 06:00:00 NR 18.8263 134.163 main 1180 1158 __________P___ -1 18.8263 134.163 2 11 311
1933200N16143 1933 28 WP MM NOT_NAMED 1933-07-22 09:00:00 NR 19.3000 133.700 main 1160 1147 __________O___ -1 19.3000 133.700 2 16 321
1933200N16143 1933 28 WP MM NOT_NAMED 1933-07-22 12:00:00 NR 20.0522 133.109 main 1149 1103 __________P___ -1 20.0522 133.109 2 20 326
1933200N16143 1933 28 WP MM NOT_NAMED 1933-07-22 15:00:00 NR 20.9867 132.496 main 1106 1023 __________P___ -1 20.9867 132.496 2 23 330
1933200N16143 1933 28 WP MM NOT_NAMED 1933-07-22 18:00:00 NR 22.0026 131.909 main 1012 907 __________P___ -1 22.0026 131.909 2 23 333
1933200N16143 1933 28 WP MM NOT_NAMED 1933-07-22 21:00:00 NR 23.0000 131.400 main 896 804 __________O___ -1 23.0000 131.400 2 20 338
1933200N16143 1933 28 WP MM NOT_NAMED 1933-07-23 00:00:00 NR 23.8696 131.106 main 793 703 __________P___ -1 23.8696 131.106 2 18 345
1933200N16143 1933 28 WP MM NOT_NAMED 1933-07-23 03:00:00 NR 24.7008 130.886 main 703 625 __________P___ -1 24.7008 130.886 2 17 346
1933200N16143 1933 28 WP MM NOT_NAMED 1933-07-23 06:00:00 NR 25.4818 130.649 main 614 537 __________P___ -1 25.4818 130.649 2 16 341
1933200N16143 1933 28 WP MM NOT_NAMED 1933-07-23 09:00:00 NR 26.2000 130.300 main 537 478 __________O___ -1 26.2000 130.300 2 16 325
1933200N16143 1933 28 WP MM NOT_NAMED 1933-07-23 12:00:00 NR 26.7863 129.632 main 480 448 __________P___ -1 26.7863 129.632 2 17 311
1933200N16143 1933 28 WP MM NOT_NAMED 1933-07-23 15:00:00 NR 27.3177 128.851 main 448 425 __________P___ -1 27.3177 128.851 2 18 308
1933200N16143 1933 28 WP MM NOT_NAMED 1933-07-23 18:00:00 NR 27.8646 128.070 main 420 404 __________P___ -1 27.8646 128.070 2 17 313
1933200N16143 1933 28 WP MM NOT_NAMED 1933-07-23 21:00:00 NR 28.5000 127.400 main 404 400 __________O___ -1 28.5000 127.400 2 17 319
1933200N16143 1933 28 WP MM NOT_NAMED 1933-07-24 00:00:00 NR 29.1669 126.763 main 395 368 __________P___ -1 29.1669 126.763 2 18 326
1933200N16143 1933 28 WP MM NOT_NAMED 1933-07-24 03:00:00 NR 29.9540 126.285 main 356 257 __________P___ -1 29.9540 126.285 2 19 342
1933200N16143 1933 28 WP MM NOT_NAMED 1933-07-24 06:00:00 NR 30.9389 126.088 main 257 122 __________P___ -1 30.9389 126.088 2 23 0
1933200N16143 1933 28 WP MM NOT_NAMED 1933-07-24 09:00:00 NR 32.2000 126.300 main 111 0 __________O___ -1 32.2000 126.300 2 32 15
1933200N16143 1933 28 WP MM NOT_NAMED 1933-07-24 12:00:00 NR 34.0021 127.079 main 48 0 __________P___ -1 34.0021 127.079 2 42 24
1933200N16143 1933 28 WP MM NOT_NAMED 1933-07-24 15:00:00 NR 36.0361 128.320 main 0 0 __________P___ -1 36.0361 128.320 2 46 29
1933200N16143 1933 28 WP MM NOT_NAMED 1933-07-24 18:00:00 NR 38.0252 129.860 main 77 77 __________P___ -1 38.0252 129.860 2 44 34
1933200N16143 1933 28 WP MM NOT_NAMED 1933-07-24 21:00:00 NR 39.7000 131.500 main 195 195 __________O___ -1 39.7000 131.500 2 38 41
1933200N16143 1933 28 WP MM NOT_NAMED 1933-07-25 00:00:00 NR 40.8715 133.045 main 200 142 __________P___ -1 40.8715 133.045 2 30 49
1933200N16143 1933 28 WP MM NOT_NAMED 1933-07-25 03:00:00 NR 41.6191 134.469 main 148 138 __________P___ -1 41.6191 134.469 2 24 60
1933200N16143 1933 28 WP MM NOT_NAMED 1933-07-25 06:00:00 NR 42.0832 135.805 main 165 165 __________P___ -1 42.0832 135.805 2 21 68
1933200N16143 1933 28 WP MM NOT_NAMED 1933-07-25 09:00:00 NR 42.4000 137.100 main 203 __________O___ -1 42.4000 137.100 2 20 72

Digital Typhoon Data and Search

About IBTrACS Database

This database is a web-friendly format of International Best Track Archive for Climate Stewardship (IBTrACS), a global best track data archive curated by NOAA dating back to 1842.

Updated: 2021-12-06